Time;durP1;ratioP1;P1;durP2;ratioP2;P2;SDS_P1;SDS_P2;PMS_P1;PMS_P2;Temp;Humidity;BMP_temperature;BMP_pressure;BME280_temperature;BME280_humidity;BME280_pressure;Samples;Min_cycle;Max_cycle;Signal;HPM_P1;HPM_P2
2023/02/22 00:00:18;;;;;;;13.03;12.03;;;11.50;26.50;;;;;;4964048;28;20422;-56
2023/02/22 00:02:47;;;;;;;12.57;11.47;;;11.50;26.70;;;;;;4962738;28;20433;-57
2023/02/22 00:05:15;;;;;;;13.53;12.53;;;11.50;26.70;;;;;;4963342;28;20485;-58
2023/02/22 00:07:43;;;;;;;14.43;12.37;;;11.50;26.90;;;;;;4961683;28;20926;-56
2023/02/22 00:10:12;;;;;;;10.90;9.90;;;11.60;26.90;;;;;;4963166;28;20799;-56
2023/02/22 00:12:42;;;;;;;14.83;13.40;;;11.60;26.50;;;;;;4960552;28;20736;-57
2023/02/22 00:15:08;;;;;;;13.20;12.30;;;11.30;27.50;;;;;;4980626;28;20421;-58
2023/02/22 00:17:34;;;;;;;13.77;12.60;;;11.10;28.10;;;;;;4962400;28;20812;-56
2023/02/22 00:20:00;;;;;;;14.33;13.27;;;11.10;27.70;;;;;;4963408;28;20425;-56
2023/02/22 00:22:26;;;;;;;13.17;12.17;;;11.20;27.60;;;;;;4960978;28;20429;-57
2023/02/22 00:24:52;;;;;;;12.70;11.70;;;11.20;27.70;;;;;;4963353;28;20430;-57
2023/02/22 00:27:17;;;;;;;12.87;11.87;;;11.20;27.60;;;;;;4955161;28;20186;-56
2023/02/22 00:29:46;;;;;;;12.70;11.60;;;11.30;27.50;;;;;;4966579;28;20193;-56
2023/02/22 00:32:12;;;;;;;12.07;11.00;;;11.30;27.30;;;;;;4959893;28;20213;-54
2023/02/22 00:34:37;;;;;;;13.63;12.43;;;11.30;27.20;;;;;;4984029;28;20417;-57
2023/02/22 00:37:03;;;;;;;12.23;11.33;;;11.40;27.20;;;;;;4959669;28;20292;-57
2023/02/22 00:39:29;;;;;;;13.00;12.00;;;11.40;27.00;;;;;;4964935;28;20182;-57
2023/02/22 00:41:56;;;;;;;12.60;11.77;;;11.40;26.90;;;;;;4962744;28;20188;-57
2023/02/22 00:44:21;;;;;;;13.77;12.70;;;11.40;27.10;;;;;;4962750;28;20499;-57
2023/02/22 00:46:48;;;;;;;10.40;9.57;;;11.40;27.10;;;;;;4960428;28;20425;-58
2023/02/22 00:49:15;;;;;;;13.00;12.00;;;11.40;27.10;;;;;;4962464;28;20185;-56
2023/02/22 00:51:41;;;;;;;10.20;9.50;;;11.50;27.00;;;;;;4962960;28;20426;-57
2023/02/22 00:54:06;;;;;;;12.17;11.47;;;11.40;26.60;;;;;;4957246;28;20466;-57
2023/02/22 00:56:33;;;;;;;11.60;10.70;;;11.40;26.40;;;;;;4959921;28;20190;-54
2023/02/22 00:58:59;;;;;;;11.10;10.30;;;11.30;25.80;;;;;;4965268;28;20174;-56
2023/02/22 01:01:29;;;;;;;13.47;12.50;;;11.10;26.20;;;;;;4964899;28;20917;-56
2023/02/22 01:03:54;;;;;;;13.60;12.30;;;10.90;26.70;;;;;;4957121;28;20849;-57
2023/02/22 01:06:21;;;;;;;12.50;11.80;;;10.80;26.70;;;;;;4955736;28;20431;-56
2023/02/22 01:08:48;;;;;;;13.80;12.33;;;10.70;27.50;;;;;;4968406;28;20186;-57
2023/02/22 01:11:15;;;;;;;12.17;11.37;;;10.80;27.60;;;;;;4967866;28;20826;-57
2023/02/22 01:13:40;;;;;;;13.63;12.77;;;10.80;27.30;;;;;;4963843;28;20461;-57
2023/02/22 01:16:07;;;;;;;13.50;12.50;;;10.90;27.30;;;;;;4966162;28;20421;-57
2023/02/22 01:18:34;;;;;;;12.80;12.00;;;10.90;27.20;;;;;;4967711;28;20269;-58
2023/02/22 01:21:01;;;;;;;12.57;11.77;;;11.00;27.00;;;;;;4964905;28;20862;-56
2023/02/22 01:23:26;;;;;;;12.70;11.70;;;11.00;26.70;;;;;;4964258;28;20429;-58
2023/02/22 01:25:52;;;;;;;12.80;11.70;;;11.00;26.80;;;;;;4966185;28;20921;-49
2023/02/22 01:28:18;;;;;;;11.70;10.60;;;11.10;27.00;;;;;;4964603;28;20185;-50
2023/02/22 01:30:44;;;;;;;14.07;12.80;;;11.10;27.00;;;;;;4965891;28;20426;-54
2023/02/22 01:33:11;;;;;;;14.00;12.97;;;11.10;27.00;;;;;;4966685;28;20318;-52
2023/02/22 01:35:40;;;;;;;13.37;12.47;;;11.10;27.20;;;;;;4964024;28;20530;-49
2023/02/22 01:38:09;;;;;;;14.00;13.10;;;11.00;26.80;;;;;;4965562;28;20426;-57
2023/02/22 01:40:38;;;;;;;12.73;11.73;;;11.00;26.80;;;;;;4962995;28;20476;-56
2023/02/22 01:43:17;;;;;;;11.97;11.20;;;11.10;27.20;;;;;;4967830;28;20931;-55
2023/02/22 01:45:57;;;;;;;13.53;12.13;;;11.10;26.50;;;;;;4964645;28;20950;-57
2023/02/22 01:48:38;;;;;;;12.70;11.70;;;11.10;26.50;;;;;;4964742;28;20426;-57
2023/02/22 01:51:13;;;;;;;13.43;12.23;;;11.10;26.50;;;;;;4959036;28;20471;-54
2023/02/22 01:53:53;;;;;;;12.80;11.87;;;11.10;26.50;;;;;;4965005;28;20588;-55
2023/02/22 01:56:21;;;;;;;14.83;13.73;;;11.10;26.60;;;;;;4964609;28;20525;-57
2023/02/22 01:58:52;;;;;;;13.70;12.70;;;11.00;26.80;;;;;;4964027;28;20424;-57
2023/02/22 02:01:22;;;;;;;13.87;12.77;;;11.00;27.50;;;;;;4961214;28;20481;-57
2023/02/22 02:03:50;;;;;;;15.37;14.07;;;11.00;26.90;;;;;;4959587;28;20842;-56
2023/02/22 02:06:17;;;;;;;13.40;12.50;;;11.00;27.20;;;;;;4979082;28;20417;-57
2023/02/22 02:09:03;;;;;;;15.37;14.10;;;11.00;27.20;;;;;;4961516;28;20897;-55
2023/02/22 02:11:31;;;;;;;14.90;13.70;;;10.90;27.20;;;;;;4919369;28;20432;-56
2023/02/22 02:13:57;;;;;;;13.70;12.80;;;10.60;27.80;;;;;;4963543;28;20852;-56
2023/02/22 02:16:35;;;;;;;13.43;12.50;;;10.50;28.40;;;;;;4962596;28;20421;-57
2023/02/22 02:19:02;;;;;;;12.00;11.07;;;10.60;28.10;;;;;;4954021;28;20425;-56
2023/02/22 02:21:57;;;;;;;14.17;12.90;;;10.70;27.70;;;;;;4963393;28;20421;-56
2023/02/22 02:24:43;;;;;;;14.10;13.23;;;10.70;27.60;;;;;;4960425;28;20414;-56
2023/02/22 02:27:58;;;;;;;13.60;12.63;;;10.80;27.30;;;;;;4952282;28;20452;-57
2023/02/22 02:30:57;;;;;;;12.30;11.60;;;10.50;27.70;;;;;;4894804;29;20854;-57
2023/02/22 02:34:01;;;;;;;14.57;13.60;;;10.30;28.60;;;;;;4906438;29;20496;-60
2023/02/22 02:36:41;;;;;;;13.57;12.77;;;10.40;28.00;;;;;;4891128;29;20962;-57
2023/02/22 02:39:22;;;;;;;12.43;11.77;;;10.00;28.70;;;;;;4971703;28;20413;-56
2023/02/22 02:41:50;;;;;;;13.90;12.90;;;9.60;30.60;;;;;;4965378;28;20693;-57
2023/02/22 02:44:18;;;;;;;12.70;11.90;;;9.70;30.90;;;;;;4963516;28;20441;-57
2023/02/22 02:46:55;;;;;;;13.30;12.50;;;9.80;30.40;;;;;;4961765;28;20525;-55
2023/02/22 02:49:27;;;;;;;12.60;11.77;;;10.00;29.00;;;;;;4963712;28;20539;-55
2023/02/22 02:51:55;;;;;;;11.77;11.07;;;10.10;28.80;;;;;;4960854;28;20421;-55
2023/02/22 02:54:22;;;;;;;13.30;12.37;;;10.30;28.50;;;;;;4956471;28;20472;-56
2023/02/22 02:56:49;;;;;;;13.37;12.60;;;10.30;28.10;;;;;;4962708;28;20922;-55
2023/02/22 02:59:38;;;;;;;12.70;12.00;;;10.40;27.80;;;;;;4962419;28;20417;-56
2023/02/22 03:02:16;;;;;;;14.57;13.33;;;10.50;27.70;;;;;;4965969;28;20836;-54
2023/02/22 03:05:12;;;;;;;13.40;12.63;;;10.50;27.50;;;;;;4962629;28;20902;-55
2023/02/22 03:07:41;;;;;;;14.73;13.43;;;10.50;27.70;;;;;;4955159;28;20414;-56
2023/02/22 03:10:22;;;;;;;14.80;13.80;;;10.60;27.70;;;;;;4962997;28;20424;-54
2023/02/22 03:13:07;;;;;;;14.70;13.43;;;10.60;28.10;;;;;;4961227;28;20564;-56
2023/02/22 03:15:39;;;;;;;15.73;14.30;;;10.60;27.60;;;;;;4961773;28;20926;-56
2023/02/22 03:18:16;;;;;;;15.63;14.43;;;10.60;27.50;;;;;;4963188;28;20766;-56
2023/02/22 03:21:23;;;;;;;15.50;14.37;;;10.60;27.50;;;;;;4962014;28;20440;-53
2023/02/22 03:24:03;;;;;;;14.60;13.47;;;10.60;27.80;;;;;;4959830;28;20426;-56
2023/02/22 03:26:37;;;;;;;14.20;13.30;;;10.40;27.60;;;;;;4959639;28;20453;-54
2023/02/22 03:29:05;;;;;;;14.50;13.50;;;10.20;28.30;;;;;;4964152;28;20428;-56
2023/02/22 03:31:36;;;;;;;14.53;13.47;;;10.00;28.40;;;;;;4961235;28;20417;-56
2023/02/22 03:34:10;;;;;;;14.57;13.57;;;9.80;30.00;;;;;;4963139;28;20469;-55
2023/02/22 03:36:46;;;;;;;14.53;13.53;;;9.90;29.90;;;;;;4960871;28;20491;-54
2023/02/22 03:39:17;;;;;;;14.17;13.20;;;10.00;28.70;;;;;;4963134;28;20427;-57
2023/02/22 03:41:50;;;;;;;13.53;12.63;;;10.10;28.70;;;;;;4959303;28;20452;-58
2023/02/22 03:44:21;;;;;;;14.80;13.70;;;10.10;28.30;;;;;;4962741;28;20783;-56
2023/02/22 03:46:49;;;;;;;13.90;13.00;;;10.20;28.10;;;;;;4954818;28;20444;-57
2023/02/22 03:49:44;;;;;;;15.20;14.00;;;10.30;27.90;;;;;;4946614;28;20948;-57
2023/02/22 03:52:11;;;;;;;15.07;13.77;;;10.40;27.70;;;;;;4962396;28;20758;-57
2023/02/22 03:54:38;;;;;;;15.67;14.50;;;10.40;27.50;;;;;;4960025;28;20834;-57
2023/02/22 03:57:16;;;;;;;15.40;14.40;;;10.40;27.50;;;;;;4959864;28;20421;-57
2023/02/22 03:59:42;;;;;;;14.50;13.37;;;10.40;27.50;;;;;;4960423;28;20434;-57
2023/02/22 04:02:08;;;;;;;15.77;14.57;;;10.40;27.50;;;;;;4962366;28;20409;-57
2023/02/22 04:04:33;;;;;;;14.87;13.87;;;10.40;27.50;;;;;;4962604;28;20456;-54
2023/02/22 04:06:59;;;;;;;16.37;15.27;;;10.40;28.00;;;;;;4958344;28;20517;-55
2023/02/22 04:09:25;;;;;;;15.33;14.03;;;10.30;28.00;;;;;;4958325;28;20258;-57
2023/02/22 04:11:50;;;;;;;15.37;14.27;;;10.30;28.00;;;;;;4962099;28;20180;-56
2023/02/22 04:14:16;;;;;;;14.80;13.63;;;10.30;27.80;;;;;;4960496;28;20288;-56
2023/02/22 04:16:42;;;;;;;15.30;14.07;;;10.30;27.90;;;;;;4982900;28;20264;-54
2023/02/22 04:19:07;;;;;;;14.83;13.93;;;10.30;27.70;;;;;;4958926;28;20257;-57
2023/02/22 04:21:33;;;;;;;15.33;14.33;;;10.40;27.60;;;;;;4965143;28;20638;-55
2023/02/22 04:23:59;;;;;;;14.33;13.33;;;10.40;27.70;;;;;;4958924;28;20644;-57
2023/02/22 04:26:24;;;;;;;14.87;13.97;;;10.40;27.60;;;;;;4963891;28;20638;-56
2023/02/22 04:28:50;;;;;;;14.07;13.10;;;10.40;27.60;;;;;;4961099;28;20186;-57
2023/02/22 04:31:16;;;;;;;17.37;15.90;;;10.40;27.50;;;;;;4962099;28;20460;-57
2023/02/22 04:33:42;;;;;;;15.00;14.00;;;10.40;27.50;;;;;;4962792;28;20211;-48
2023/02/22 04:36:09;;;;;;;16.07;14.73;;;10.40;27.50;;;;;;4965019;28;20849;-50
2023/02/22 04:38:35;;;;;;;15.20;14.20;;;10.20;27.90;;;;;;4963047;28;20430;-50
2023/02/22 04:41:01;;;;;;;14.70;13.80;;;10.00;28.40;;;;;;4961948;28;20426;-49
2023/02/22 04:43:27;;;;;;;15.47;14.17;;;10.10;28.40;;;;;;4961910;28;20429;-50
2023/02/22 04:45:52;;;;;;;15.80;14.60;;;10.20;28.20;;;;;;4965121;28;20228;-56
2023/02/22 04:48:18;;;;;;;15.50;14.20;;;10.30;28.10;;;;;;4964400;28;20233;-57
2023/02/22 04:50:44;;;;;;;16.70;15.40;;;10.40;27.80;;;;;;4965025;28;20187;-57
2023/02/22 04:53:10;;;;;;;15.17;14.30;;;10.50;27.30;;;;;;4965595;28;20584;-57
2023/02/22 04:55:35;;;;;;;15.67;14.57;;;10.60;26.90;;;;;;4969221;28;20182;-56
2023/02/22 04:58:01;;;;;;;15.90;14.70;;;10.70;26.70;;;;;;4962521;28;20953;-57
2023/02/22 05:00:27;;;;;;;16.60;15.30;;;10.80;26.60;;;;;;4967963;28;20700;-57
2023/02/22 05:02:52;;;;;;;17.03;15.70;;;10.80;26.20;;;;;;4965592;28;20174;-57
2023/02/22 05:05:20;;;;;;;16.23;15.33;;;10.80;26.20;;;;;;4965871;28;20549;-57
2023/02/22 05:07:46;;;;;;;16.00;15.00;;;10.90;26.20;;;;;;4964936;28;20717;-58
2023/02/22 05:10:13;;;;;;;16.93;15.40;;;10.90;26.10;;;;;;4967787;28;20433;-49
2023/02/22 05:12:39;;;;;;;16.13;15.00;;;10.60;26.20;;;;;;4980522;28;20500;-50
2023/02/22 05:15:06;;;;;;;16.10;15.20;;;10.40;26.80;;;;;;4966697;28;20449;-48
2023/02/22 05:17:32;;;;;;;16.33;15.27;;;10.30;27.30;;;;;;4963664;28;20418;-53
2023/02/22 05:19:58;;;;;;;15.77;14.67;;;10.30;27.40;;;;;;4966431;28;20417;-53
2023/02/22 05:22:23;;;;;;;16.20;15.10;;;10.30;27.40;;;;;;4965190;28;20895;-52
2023/02/22 05:24:51;;;;;;;16.47;15.40;;;10.40;27.20;;;;;;4966624;28;20429;-50
2023/02/22 05:27:17;;;;;;;16.83;15.57;;;10.50;26.90;;;;;;4965253;28;20258;-51
2023/02/22 05:29:43;;;;;;;15.83;14.73;;;10.40;26.80;;;;;;4971225;28;20776;-50
2023/02/22 05:32:11;;;;;;;16.67;15.30;;;10.10;27.40;;;;;;4981180;28;20413;-52
2023/02/22 05:34:37;;;;;;;16.40;15.40;;;10.10;28.20;;;;;;4959135;28;20464;-50
2023/02/22 05:37:03;;;;;;;16.57;15.23;;;10.10;27.80;;;;;;4956471;28;20899;-47
2023/02/22 05:39:29;;;;;;;16.27;15.30;;;10.20;27.60;;;;;;4961414;28;20930;-52
2023/02/22 05:41:55;;;;;;;16.30;15.00;;;10.30;27.30;;;;;;4964735;28;20413;-52
2023/02/22 05:44:21;;;;;;;17.03;15.93;;;10.30;27.60;;;;;;4954851;28;21018;-54
2023/02/22 05:46:46;;;;;;;16.80;15.70;;;10.30;27.60;;;;;;4961258;28;20186;-50
2023/02/22 05:49:12;;;;;;;19.37;17.97;;;10.30;27.30;;;;;;4960380;28;20174;-58
2023/02/22 05:51:37;;;;;;;17.03;15.50;;;10.50;27.30;;;;;;4959886;28;20227;-57
2023/02/22 05:54:03;;;;;;;19.20;17.80;;;10.30;26.90;;;;;;4958082;28;20202;-56
2023/02/22 05:56:29;;;;;;;17.13;15.77;;;10.20;27.80;;;;;;4965016;28;20225;-56
2023/02/22 05:58:55;;;;;;;15.17;14.10;;;10.00;27.90;;;;;;4972163;28;20186;-54
2023/02/22 06:01:21;;;;;;;15.57;14.37;;;9.60;30.20;;;;;;4964698;28;20171;-58
2023/02/22 06:03:49;;;;;;;16.10;15.07;;;9.50;29.80;;;;;;4971573;28;20414;-57
2023/02/22 06:06:15;;;;;;;17.07;15.67;;;9.30;30.20;;;;;;4965304;28;20426;-52
2023/02/22 06:08:41;;;;;;;16.63;15.53;;;9.30;31.00;;;;;;4970025;28;20429;-54
2023/02/22 06:11:08;;;;;;;16.10;15.00;;;9.30;30.80;;;;;;4965871;28;20511;-53
2023/02/22 06:13:34;;;;;;;16.20;15.17;;;9.50;30.10;;;;;;4958152;28;21005;-55
2023/02/22 06:16:01;;;;;;;15.87;14.80;;;9.50;29.90;;;;;;4983171;28;20413;-54
2023/02/22 06:18:29;;;;;;;16.30;15.07;;;9.60;30.00;;;;;;4967749;28;20421;-51
2023/02/22 06:20:55;;;;;;;16.50;15.40;;;9.70;29.70;;;;;;4965212;28;20432;-54
2023/02/22 06:23:22;;;;;;;15.23;14.13;;;9.90;29.30;;;;;;4980359;28;20422;-54
2023/02/22 06:25:48;;;;;;;16.43;15.23;;;10.00;28.40;;;;;;4960784;28;20460;-56
2023/02/22 06:28:14;;;;;;;17.73;16.40;;;10.00;28.40;;;;;;4963108;28;20933;-56
2023/02/22 06:30:41;;;;;;;16.73;15.57;;;9.90;28.80;;;;;;4965515;28;20214;-53
2023/02/22 06:33:08;;;;;;;17.20;16.17;;;9.80;29.20;;;;;;4968033;28;20465;-55
2023/02/22 06:35:33;;;;;;;16.73;15.57;;;9.90;29.10;;;;;;4983561;28;20411;-55
2023/02/22 06:37:59;;;;;;;17.37;16.03;;;10.00;28.10;;;;;;4971467;28;20783;-49
2023/02/22 06:40:28;;;;;;;16.77;15.57;;;10.20;27.90;;;;;;4964583;28;20181;-50
2023/02/22 06:42:54;;;;;;;16.23;15.13;;;10.30;27.50;;;;;;4958387;28;20604;-56
2023/02/22 06:45:20;;;;;;;16.63;15.43;;;10.40;27.40;;;;;;4964343;28;20438;-56
2023/02/22 06:47:46;;;;;;;15.73;14.63;;;10.40;27.10;;;;;;4969214;28;20505;-52
2023/02/22 06:50:25;;;;;;;15.40;14.43;;;10.50;27.00;;;;;;4970031;28;20612;-52
2023/02/22 06:52:50;;;;;;;16.47;15.17;;;10.60;26.90;;;;;;4964237;28;20493;-50
2023/02/22 06:55:22;;;;;;;16.77;15.73;;;10.50;26.90;;;;;;4969136;28;20451;-50
2023/02/22 06:57:47;;;;;;;16.70;15.30;;;10.30;27.00;;;;;;4958447;28;20619;-50
2023/02/22 07:00:17;;;;;;;16.93;15.63;;;10.20;27.40;;;;;;4957232;28;20521;-48
2023/02/22 07:02:43;;;;;;;17.67;16.17;;;10.00;27.30;;;;;;4959324;28;20273;-53
2023/02/22 07:05:11;;;;;;;17.30;15.80;;;9.70;28.60;;;;;;4960312;28;20421;-53
2023/02/22 07:07:37;;;;;;;17.77;16.53;;;9.70;29.30;;;;;;4962585;28;20462;-50
2023/02/22 07:10:05;;;;;;;16.90;15.70;;;9.90;28.90;;;;;;4966918;28;20444;-49
2023/02/22 07:12:31;;;;;;;18.27;16.60;;;10.00;27.90;;;;;;4960463;28;20462;-54
2023/02/22 07:14:57;;;;;;;17.43;16.23;;;10.00;27.20;;;;;;4967278;28;20421;-50
2023/02/22 07:17:22;;;;;;;16.00;14.67;;;9.80;28.50;;;;;;4965049;28;20170;-54
2023/02/22 07:19:48;;;;;;;17.00;15.70;;;9.80;29.30;;;;;;4966875;28;20177;-56
2023/02/22 07:22:13;;;;;;;17.73;16.33;;;9.90;28.80;;;;;;4959912;28;20584;-56
2023/02/22 07:24:40;;;;;;;16.30;15.00;;;9.80;28.40;;;;;;4960416;28;20183;-55
2023/02/22 07:27:05;;;;;;;16.83;15.73;;;9.60;29.20;;;;;;4969590;28;20174;-56
2023/02/22 07:29:32;;;;;;;17.63;16.23;;;9.40;29.50;;;;;;4971384;28;20929;-55
2023/02/22 07:31:58;;;;;;;17.80;16.33;;;9.30;30.00;;;;;;4963486;28;20178;-56
2023/02/22 07:34:25;;;;;;;16.10;14.90;;;9.20;30.20;;;;;;4940863;28;20569;-56
2023/02/22 07:36:50;;;;;;;17.60;16.10;;;9.20;30.20;;;;;;4961115;28;20517;-56
2023/02/22 07:39:16;;;;;;;17.60;16.10;;;9.20;30.60;;;;;;4962495;28;20273;-56
2023/02/22 07:41:42;;;;;;;18.33;16.93;;;9.40;30.50;;;;;;4960979;28;20225;-55
2023/02/22 07:44:07;;;;;;;18.23;16.60;;;9.60;29.90;;;;;;4960790;28;20530;-53
2023/02/22 07:46:33;;;;;;;16.77;15.67;;;9.60;29.60;;;;;;4957524;28;20195;-57
2023/02/22 07:48:58;;;;;;;18.87;17.50;;;9.80;29.70;;;;;;4956044;28;20598;-56
2023/02/22 07:51:25;;;;;;;16.97;15.37;;;9.80;29.50;;;;;;4954856;28;20205;-57
2023/02/22 07:53:51;;;;;;;18.70;17.20;;;9.80;29.40;;;;;;4954113;28;20213;-56
2023/02/22 07:56:17;;;;;;;17.20;15.90;;;10.00;28.40;;;;;;4955459;28;20817;-55
2023/02/22 07:58:42;;;;;;;16.77;15.50;;;10.10;28.00;;;;;;4957475;28;20191;-56
2023/02/22 08:01:09;;;;;;;18.03;16.20;;;10.30;27.40;;;;;;4953934;28;20245;-58
2023/02/22 08:03:36;;;;;;;17.50;16.20;;;10.40;27.40;;;;;;4957344;28;20733;-58
2023/02/22 08:06:04;;;;;;;19.27;17.53;;;10.40;26.90;;;;;;4955871;28;20429;-57
2023/02/22 08:08:30;;;;;;;19.07;17.47;;;10.50;26.90;;;;;;4971603;28;21036;-57
2023/02/22 08:10:55;;;;;;;19.17;17.77;;;10.50;26.70;;;;;;4952551;28;20485;-57
2023/02/22 08:13:22;;;;;;;16.83;15.73;;;10.50;26.50;;;;;;4954819;28;20465;-57
2023/02/22 08:15:51;;;;;;;17.83;16.10;;;10.50;26.70;;;;;;4955433;28;20235;-53
2023/02/22 08:18:18;;;;;;;17.30;16.10;;;10.40;27.20;;;;;;4955128;28;20485;-56
2023/02/22 08:20:46;;;;;;;18.87;17.33;;;10.40;27.30;;;;;;4955430;28;20429;-56
2023/02/22 08:23:14;;;;;;;18.17;16.47;;;10.30;27.30;;;;;;4955140;28;20430;-56
2023/02/22 08:25:40;;;;;;;19.10;17.80;;;10.20;27.50;;;;;;4955187;28;20434;-58
2023/02/22 08:28:11;;;;;;;18.97;17.00;;;10.20;27.60;;;;;;4955021;28;20426;-55
2023/02/22 08:30:38;;;;;;;17.90;16.50;;;10.30;27.60;;;;;;4957644;28;20423;-56
2023/02/22 08:33:04;;;;;;;17.90;16.40;;;10.10;27.50;;;;;;4953401;28;20465;-54
2023/02/22 08:35:31;;;;;;;20.13;18.43;;;10.10;27.90;;;;;;4953960;28;20426;-55
2023/02/22 08:38:05;;;;;;;17.37;16.07;;;10.00;28.50;;;;;;4954157;28;20422;-52
2023/02/22 08:40:34;;;;;;;18.37;17.17;;;10.00;29.00;;;;;;4954546;28;20422;-56
2023/02/22 08:43:00;;;;;;;18.80;17.13;;;10.20;29.30;;;;;;4954804;28;21011;-57
2023/02/22 08:45:26;;;;;;;18.87;17.37;;;10.30;27.90;;;;;;4954271;28;20473;-57
2023/02/22 08:47:52;;;;;;;19.03;17.57;;;10.40;27.80;;;;;;4954623;28;20430;-54
2023/02/22 08:50:30;;;;;;;18.40;17.17;;;10.30;27.90;;;;;;4957629;28;20509;-56
2023/02/22 08:52:59;;;;;;;18.80;17.50;;;10.50;27.90;;;;;;4954985;28;20217;-56
2023/02/22 08:55:30;;;;;;;19.60;18.30;;;10.60;27.30;;;;;;4953620;28;20771;-56
2023/02/22 08:57:56;;;;;;;18.30;16.90;;;10.60;27.00;;;;;;4959879;28;20473;-56
2023/02/22 09:00:24;;;;;;;19.83;18.27;;;10.50;27.20;;;;;;4962212;28;20417;-54
2023/02/22 09:02:50;;;;;;;17.17;15.80;;;10.60;27.60;;;;;;4967753;28;20421;-57
2023/02/22 09:05:16;;;;;;;19.50;17.60;;;10.70;27.30;;;;;;4968489;28;20417;-57
2023/02/22 09:07:43;;;;;;;18.77;17.47;;;10.80;27.10;;;;;;4967654;28;20443;-52
2023/02/22 09:10:23;;;;;;;18.40;16.87;;;10.80;27.00;;;;;;4966367;28;20784;-57
2023/02/22 09:12:54;;;;;;;17.40;16.23;;;10.90;26.90;;;;;;4962212;28;20484;-57
2023/02/22 09:15:20;;;;;;;18.23;16.57;;;11.00;27.00;;;;;;4966682;28;20785;-57
2023/02/22 09:17:46;;;;;;;17.20;16.07;;;11.10;26.80;;;;;;4962134;28;20422;-54
2023/02/22 09:20:13;;;;;;;18.20;16.50;;;11.30;26.60;;;;;;4967228;28;20413;-52
2023/02/22 09:22:39;;;;;;;19.07;16.40;;;11.30;26.30;;;;;;4966644;28;20178;-50
2023/02/22 09:25:06;;;;;;;19.50;17.73;;;11.30;26.50;;;;;;4962878;28;20829;-51
2023/02/22 09:27:31;;;;;;;21.40;17.83;;;11.30;26.20;;;;;;4958820;28;20418;-50
2023/02/22 09:29:57;;;;;;;20.40;18.40;;;11.40;26.30;;;;;;4961042;28;20446;-51
2023/02/22 09:32:26;;;;;;;18.07;16.57;;;11.50;26.30;;;;;;4966262;28;20182;-53
2023/02/22 09:34:52;;;;;;;19.97;18.47;;;11.70;26.20;;;;;;4966482;28;20174;-49
2023/02/22 09:37:18;;;;;;;16.30;14.97;;;11.80;26.20;;;;;;4965537;28;20414;-53
2023/02/22 09:39:45;;;;;;;24.20;16.20;;;12.00;25.60;;;;;;4964389;28;20430;-49
2023/02/22 09:42:19;;;;;;;16.00;14.90;;;12.20;25.20;;;;;;4964049;28;20418;-53
2023/02/22 09:44:47;;;;;;;13.83;12.60;;;12.30;24.80;;;;;;4964820;28;20451;-52
2023/02/22 09:47:17;;;;;;;16.87;15.27;;;12.30;24.80;;;;;;4963155;28;20822;-54
2023/02/22 09:49:59;;;;;;;15.63;14.47;;;12.30;24.80;;;;;;4965799;28;20453;-51
2023/02/22 09:52:29;;;;;;;14.50;13.30;;;12.30;24.90;;;;;;4969935;28;20929;-52
2023/02/22 09:55:24;;;;;;;15.17;14.03;;;12.30;24.80;;;;;;4966068;28;20460;-50
2023/02/22 09:57:54;;;;;;;17.17;15.63;;;12.30;24.80;;;;;;4964654;28;20422;-54
2023/02/22 10:00:28;;;;;;;15.00;13.80;;;12.30;24.80;;;;;;4960667;28;20461;-51
2023/02/22 10:03:12;;;;;;;16.20;14.50;;;12.30;24.80;;;;;;4958490;28;20441;-49
2023/02/22 10:05:47;;;;;;;17.20;15.60;;;12.30;24.80;;;;;;4957966;28;20461;-53
2023/02/22 10:08:17;;;;;;;13.63;12.70;;;12.30;24.90;;;;;;4968740;28;20424;-50
2023/02/22 10:10:44;;;;;;;14.53;13.23;;;12.40;24.80;;;;;;4965901;28;20426;-49
2023/02/22 10:13:51;;;;;;;13.50;12.20;;;12.40;24.80;;;;;;4968381;28;20465;-48
2023/02/22 10:16:28;;;;;;;14.37;13.27;;;12.50;24.60;;;;;;4889547;28;20445;-48
2023/02/22 10:19:12;;;;;;;14.60;13.40;;;12.50;24.40;;;;;;4966275;28;20417;-48
2023/02/22 10:21:50;;;;;;;15.23;14.13;;;12.50;24.50;;;;;;4966456;28;20433;-52
2023/02/22 10:24:57;;;;;;;13.00;12.17;;;12.50;24.70;;;;;;4969102;28;20425;-51
2023/02/22 10:27:43;;;;;;;13.13;12.23;;;12.60;24.90;;;;;;4964945;28;20492;-51
2023/02/22 10:30:24;;;;;;;15.03;13.90;;;12.70;24.50;;;;;;4978707;28;20433;-53
2023/02/22 10:33:05;;;;;;;14.07;12.90;;;12.80;24.40;;;;;;4960106;28;20465;-54
2023/02/22 10:35:36;;;;;;;15.47;14.00;;;12.90;24.10;;;;;;4959747;28;20429;-57
2023/02/22 10:38:22;;;;;;;15.17;13.53;;;12.90;23.80;;;;;;4956541;28;20716;-56
2023/02/22 10:41:09;;;;;;;16.13;14.83;;;12.80;23.80;;;;;;4960419;28;20838;-56
2023/02/22 10:43:42;;;;;;;13.50;12.60;;;12.80;23.80;;;;;;4962716;28;20450;-56
2023/02/22 10:46:13;;;;;;;14.33;13.27;;;12.80;23.90;;;;;;4963967;28;20429;-56
2023/02/22 10:48:44;;;;;;;14.07;13.07;;;12.90;24.10;;;;;;4968631;28;20425;-56
2023/02/22 10:51:09;;;;;;;13.40;12.30;;;13.10;23.90;;;;;;4962490;28;20425;-56
2023/02/22 10:53:39;;;;;;;14.90;13.60;;;13.10;23.40;;;;;;4965343;28;20469;-55
2023/02/22 10:56:14;;;;;;;14.53;13.33;;;13.20;23.00;;;;;;4966905;28;20208;-57
2023/02/22 10:58:41;;;;;;;14.37;13.33;;;13.10;23.10;;;;;;4959490;28;20901;-53
2023/02/22 11:01:19;;;;;;;15.00;13.67;;;13.20;23.40;;;;;;4962398;28;20453;-54
2023/02/22 11:03:54;;;;;;;16.63;14.50;;;13.30;22.90;;;;;;4965471;28;20941;-57
2023/02/22 11:06:20;;;;;;;15.53;13.67;;;13.50;22.90;;;;;;4967786;28;20429;-56
2023/02/22 11:08:50;;;;;;;14.07;13.13;;;13.60;22.70;;;;;;4964639;28;20917;-57
2023/02/22 11:11:28;;;;;;;14.73;13.33;;;13.60;22.90;;;;;;4967400;28;20431;-57
2023/02/22 11:13:54;;;;;;;13.63;12.60;;;13.70;22.70;;;;;;4967520;28;20469;-56
2023/02/22 11:16:49;;;;;;;14.93;13.67;;;13.70;22.30;;;;;;4983402;28;20428;-56
2023/02/22 11:19:19;;;;;;;13.77;12.87;;;13.70;22.40;;;;;;4976657;28;20428;-54
2023/02/22 11:21:46;;;;;;;14.30;13.27;;;13.70;22.50;;;;;;4966788;28;20426;-55
2023/02/22 11:24:14;;;;;;;14.33;13.07;;;13.60;22.70;;;;;;4961578;28;20426;-54
2023/02/22 11:26:50;;;;;;;16.73;14.83;;;13.70;22.90;;;;;;4966030;28;20434;-55
2023/02/22 11:29:32;;;;;;;15.03;13.50;;;13.70;22.60;;;;;;4967562;28;20425;-58
2023/02/22 11:32:01;;;;;;;13.50;12.50;;;13.70;22.60;;;;;;4960471;28;20573;-58
2023/02/22 11:34:31;;;;;;;14.83;13.53;;;13.70;22.60;;;;;;4970173;28;20473;-56
2023/02/22 11:37:18;;;;;;;13.50;12.70;;;13.80;22.50;;;;;;4963943;28;20433;-58
2023/02/22 11:39:44;;;;;;;13.97;12.77;;;13.90;22.50;;;;;;4969567;28;20440;-56
2023/02/22 11:42:28;;;;;;;14.37;13.23;;;14.00;22.50;;;;;;4968802;28;20567;-56
2023/02/22 11:45:14;;;;;;;13.57;12.60;;;14.10;22.50;;;;;;4959897;28;20453;-57
2023/02/22 11:47:59;;;;;;;15.70;14.40;;;14.10;22.40;;;;;;4970017;28;20433;-55
2023/02/22 11:50:27;;;;;;;13.90;13.00;;;14.10;22.60;;;;;;4960269;28;20436;-56
2023/02/22 11:53:17;;;;;;;14.90;13.50;;;14.10;22.90;;;;;;4958314;28;20821;-56
2023/02/22 11:56:08;;;;;;;15.10;13.80;;;14.10;23.30;;;;;;4970798;28;20429;-56
2023/02/22 11:58:34;;;;;;;14.07;12.97;;;14.20;23.10;;;;;;4961630;28;20423;-55
2023/02/22 12:01:06;;;;;;;14.60;13.50;;;14.20;23.40;;;;;;4968485;28;20428;-54
2023/02/22 12:03:46;;;;;;;14.77;13.50;;;14.20;23.50;;;;;;4963333;28;20195;-57
2023/02/22 12:06:50;;;;;;;13.87;12.90;;;14.30;23.00;;;;;;4963576;28;20457;-55
2023/02/22 12:09:34;;;;;;;15.53;14.00;;;14.30;22.70;;;;;;4952407;28;20516;-56
2023/02/22 12:12:21;;;;;;;15.07;13.63;;;14.40;22.60;;;;;;4952076;28;20427;-53
2023/02/22 12:15:26;;;;;;;14.93;13.53;;;14.40;22.40;;;;;;4962072;28;20424;-48
2023/02/22 12:18:06;;;;;;;13.67;12.30;;;14.40;22.20;;;;;;4948518;28;20797;-52
2023/02/22 12:20:50;;;;;;;14.87;13.77;;;14.30;22.50;;;;;;4958393;28;20773;-49
2023/02/22 12:23:35;;;;;;;14.67;13.57;;;14.30;22.80;;;;;;4963169;28;20414;-50
2023/02/22 12:26:09;;;;;;;15.37;14.20;;;14.30;23.10;;;;;;4967004;28;20421;-48
2023/02/22 12:29:13;;;;;;;16.27;14.30;;;14.30;23.10;;;;;;4988260;28;20417;-49
2023/02/22 12:31:47;;;;;;;15.67;14.43;;;14.30;23.20;;;;;;4935349;28;21011;-48
2023/02/22 12:34:20;;;;;;;14.77;13.47;;;14.30;23.00;;;;;;4964514;28;20935;-52
2023/02/22 12:37:14;;;;;;;14.03;12.87;;;14.30;22.70;;;;;;4962398;28;20437;-52
2023/02/22 12:40:07;;;;;;;15.70;14.60;;;14.30;22.90;;;;;;4963080;28;20946;-51
2023/02/22 12:42:46;;;;;;;16.07;14.77;;;14.30;23.20;;;;;;4983113;28;20921;-51
2023/02/22 12:45:25;;;;;;;16.83;15.23;;;14.30;23.30;;;;;;4957671;28;20577;-54
2023/02/22 12:48:36;;;;;;;14.93;13.73;;;14.30;23.30;;;;;;4955654;28;20420;-51